• Join FlightAware (Why Join?)
  • Login
  • US Flag 
 
06:37AM EST


 

Airport Tracker/Info


-or-


 

Live Flight TrackerFlight Track Log ✈ SWA718 ✈ 22-Apr-2013 ✈ KHOU - KMCO

Flight Track Log - Related Links

Times and Time Zones

All times are in EDT time to prevent confusion due to time zone crossing. See the SWA718 flight status page for this flight to view local times or setup timezone preferences in your user account.

Time Position Orientation Groundspeed Altitude Reporting Facility
EDT Latitude Longitude Course Direction KTS MPH feet Rate Location/Type
05:46PM 29.6253 -95.2256 113° Southeast 231 266 2,900  Level Houston Center
05:47PM 29.5958 -95.2047 148° Southeast 244 281 4,000 2,160 Climbing Houston Center
05:47PM 29.5906 -95.1672 99° East 274 315 5,100 3,480 Climbing Houston Center
05:48PM 29.5964 -95.0728 86° East 292 336 8,800 3,240 Climbing Houston Center
05:49PM 29.6078 -95.0150 77° East 292 336 10,800 2,760 Climbing Houston Center
05:49PM 29.6142 -94.9719 80° East 344 396 11,700 2,400 Climbing Houston Center
05:50PM 29.6261 -94.9053 78° East 339 390 13,300 2,940 Climbing Houston Center
05:51PM 29.6467 -94.7861 79° East 369 425 16,900 3,000 Climbing Houston Center
05:52PM 29.6672 -94.6656 79° East 378 435 19,500 2,460 Climbing Houston Center
05:53PM 29.6933 -94.5125 79° East 394 453 22,000 1,200 Climbing Houston Center
05:54PM 29.7156 -94.3789 79° East 412 474 22,000 420 Level Houston Center
05:55PM 29.7106 -94.2458 92° East 417 480 22,900 1,560 Climbing Houston Center
05:56PM 29.6942 -94.1114 98° East 428 493 25,300 2,220 Climbing Houston Center
05:57PM 29.6856 -93.9708 94° East 438 504 27,500 2,100 Climbing Houston Center
05:58PM 29.6678 -93.8017 97° East 445 512 29,700 1,740 Climbing Houston Center
05:59PM 29.6475 -93.6547 99° East 459 528 31,200 1,380 Climbing Houston Center
06:00PM 29.6258 -93.4997 99° East 484 557 32,600 1,320 Climbing Houston Center
06:01PM 29.6050 -93.3447 99° East 493 567 34,000 1,140 Climbing Houston Center
06:02PM 29.5833 -93.1853 99° East 504 580 35,000 1,080 Climbing Houston Center
06:03PM 29.5558 -92.9889 99° East 519 597 36,300 960 Climbing Houston Center
06:04PM 29.5308 -92.8225 100° East 529 609 37,000 300 Climbing Houston Center
06:05PM 29.5067 -92.6553 99° East 533 613 37,000  Level Houston Center
06:06PM 29.4836 -92.4894 99° East 529 609 37,000 120 Level Houston Center
06:07PM 29.4606 -92.3239 99° East 528 608 37,300 660 Climbing Houston Center
06:08PM 29.4369 -92.1567 99° East 532 612 38,400 780 Climbing Houston Center
06:09PM 29.4072 -91.9575 100° East 532 612 39,000 240 Climbing Houston Center
06:10PM 29.3831 -91.7917 99° East 530 610 39,000  Level Houston Center
06:11PM 29.3589 -91.6328 100° East 531 611 39,000  Level Houston Center
06:13PM 29.3339 -91.4669 100° East 531 611 39,000  Level Houston Center
06:14PM 29.3039 -91.2678 100° East 532 612 39,000  Level Houston Center
06:15PM 29.2781 -91.1025 100° East 531 611 39,000  Level Houston Center
06:16PM 29.2525 -90.9381 100° East 528 608 39,000  Level Houston Center
06:17PM 29.2269 -90.7758 100° East 523 602 39,000  Level Houston Center
06:18PM 29.2006 -90.6122 100° East 525 604 39,000  Level Houston Center
06:19PM 29.1750 -90.4489 100° East 524 603 39,000  Level Houston Center
06:20PM 29.1431 -90.2542 101° East 523 602 39,000  Level Houston Center
06:21PM 29.1175 -90.0911 100° East 523 602 39,000  Level Houston Center
06:22PM 29.0908 -89.9294 101° East 520 598 39,000  Level Houston Center
06:23PM 29.0633 -89.7678 101° East 521 600 39,000  Level Houston Center
06:24PM 29.0364 -89.6058 101° East 522 601 39,000  Level Houston Center
06:25PM 29.0056 -89.4097 100° East 526 605 39,000  Level Houston Center
06:26PM 28.9778 -89.2497 101° East 519 597 39,000  Level Houston Center
06:27PM 28.9492 -89.0892 101° East 517 595 39,000  Level Houston Center
06:28PM 28.9217 -88.9297 101° East 516 594 39,000  Level Houston Center
06:29PM 28.8942 -88.7672 101° East 519 597 39,000  Level Houston Center
06:30PM 28.8581 -88.6069 104° East 521 600 39,000  Level Houston Center
06:31PM 28.8031 -88.4206 109° East 519 597 39,000  Level Houston Center
06:32PM 28.7617 -88.2600 106° East 523 602 39,000  Level Houston Center
06:33PM 28.7172 -88.1047 108° East 520 598 39,000  Level Houston Center
06:34PM 28.6719 -87.9417 108° East 522 601 39,000  Level Houston Center
06:35PM 28.6281 -87.7864 108° East 518 596 39,000  Level Houston Center
06:36PM 28.5836 -87.6303 108° East 520 598 39,000  Level Houston Center
06:37PM 28.5339 -87.4667 109° East 542 624 39,000  Level Jacksonville Center
06:38PM 28.4953 -87.3161 106° East 524 603 39,000  Level Jacksonville Center
06:39PM 28.4503 -87.1633 108° East 513 590 39,000  Level Jacksonville Center
06:40PM 28.4053 -87.0103 108° East 507 583 39,000  Level Jacksonville Center
06:41PM 28.3600 -86.8553 108° East 507 583 39,000  Level Jacksonville Center
06:42PM 28.3128 -86.7000 109° East 512 589 39,000  Level Jacksonville Center
06:43PM 28.2692 -86.5453 108° East 508 585 39,000  Level Jacksonville Center
06:44PM 28.2317 -86.3931 106° East 508 585 39,000  Level Jacksonville Center
06:45PM 28.1983 -86.2319 103° East 513 590 39,000  Level Jacksonville Center
06:46PM 28.1689 -86.0756 102° East 508 585 39,000  Level Jacksonville Center
06:47PM 28.1372 -85.9192 103° East 513 590 39,000  Level Jacksonville Center
06:48PM 28.1056 -85.7606 103° East 513 590 39,000  Level Jacksonville Center
06:49PM 28.0733 -85.6044 103° East 507 583 39,000  Level Jacksonville Center
06:51PM 28.0258 -85.3603 102° East 529 609 39,000  Level Miami Center
06:52PM 27.9936 -85.2006 103° East 529 609 39,000  Level Miami Center
06:53PM 27.9589 -85.0406 104° East 519 597 39,000  Level Miami Center
06:54PM 27.9208 -84.8689 104° East 525 604 39,000 -360 Level Miami Center
06:55PM 27.9067 -84.7086 96° East 510 587 38,300 -840 Descending Miami Center
06:56PM 27.9028 -84.5486 92° East 503 579 37,400 -660 Descending Miami Center
06:57PM 27.8903 -84.3906 95° East 503 579 37,000 -240 Descending Miami Center
06:58PM 27.8925 -84.2289 89° East 503 579 37,000 -600 Level Miami Center
06:59PM 27.8542 -84.0786 106° East 503 579 35,800 -1,140 Descending Miami Center
07:00PM 27.8181 -83.9239 105° East 503 579 34,800 -1,020 Descending Miami Center
07:01PM 27.8069 -83.7661 95° East 503 579 33,800 -1,020 Descending Miami Center
07:02PM 27.8061 -83.6089 90° East 498 573 32,800 -1,020 Descending Miami Center
07:03PM 27.8114 -83.4500 88° East 503 579 31,800 -2,340 Descending Miami Center
07:04PM 27.8125 -83.2906 90° East 498 573 28,200 -3,720 Descending Miami Center
07:05PM 27.8172 -83.1336 88° East 498 573 24,400 -3,180 Descending Miami Center
07:06PM 27.8197 -82.9811 89° East 492 566 21,900 -2,280 Descending Miami Center
07:07PM 27.8236 -82.8383 88° East 476 548 19,900 -1,800 Descending Miami Center
07:08PM 27.8217 -82.7325 91° East 454 522 18,300 -1,920 Descending Miami Center
07:09PM 27.8253 -82.5944 88° East 420 483 16,100 -1,740 Descending Miami Center
07:10PM 27.8403 -82.4756 82° East 395 455 14,900 -600 Descending Miami Center
07:11PM 27.8736 -82.3667 71° East 373 429 15,000  Climbing Miami Center
07:12PM 27.9092 -82.2606 69° East 359 413 15,000 -300 Level Miami Center
07:14PM 28.0000 -82.0000 68° East 366 421 14,200 -660 Descending Orlando TRACON
07:15PM 28.0500 -81.9000 60° Northeast 344 396 13,000 -600 Descending Orlando TRACON
07:16PM 28.0833 -81.8167 66° East 320 368 13,000 -960 Level Orlando TRACON
07:17PM 28.1333 -81.7333 56° Northeast 314 361 11,100 -1,800 Descending Orlando TRACON
07:18PM 28.1667 -81.6333 69° East 304 350 9,500 -1,620 Descending Orlando TRACON
07:19PM 28.1833 -81.5500 77° East 296 341 7,900 -1,500 Descending Orlando TRACON
07:20PM 28.1833 -81.4500 90° East 281 323 6,500 -960 Descending Orlando TRACON
07:21PM 28.2000 -81.3833 74° East 231 266 6,000 -780 Descending Orlando TRACON
07:22PM 28.2333 -81.3333 53° Northeast 199 229 5,000 -1,020 Descending Orlando TRACON
07:23PM 28.2833 -81.3167 16° North 173 199 4,000 -1,200 Descending Orlando TRACON
07:24PM 28.3333 -81.3167 360° North 144 166 2,700 -1,320 Descending Orlando TRACON
07:25PM 28.3667 -81.3167 360° North 134 154 1,400 -1,200 Descending Orlando TRACON
07:26PM 28.4000 -81.3167 360° North 136 157 400 -1,020 Descending Orlando TRACON